Time;durP1;ratioP1;P1;durP2;ratioP2;P2;SDS_P1;SDS_P2;PMS_P1;PMS_P2;Temp;Humidity;BMP_temperature;BMP_pressure;BME280_temperature;BME280_humidity;BME280_pressure;Samples;Min_cycle;Max_cycle;Signal;HPM_P1;HPM_P2
2022/11/11 00:00:47;;;;;;;23.67;21.65;;;7.20;99.90;;;;;;5039255;28;20456;-78
2022/11/11 00:03:32;;;;;;;22.60;20.98;;;7.20;99.90;;;;;;5058621;28;20060;-78
2022/11/11 00:06:17;;;;;;;23.02;21.42;;;7.20;99.90;;;;;;5045800;28;20059;-77
2022/11/11 00:09:03;;;;;;;;;;;7.10;99.90;;;;;;5047611;28;20045;-78
2022/11/11 00:11:48;;;;;;;21.50;20.10;;;7.10;99.90;;;;;;5040441;28;20668;-78
2022/11/11 00:14:33;;;;;;;;;;;7.20;99.90;;;;;;5056444;28;20054;-78
2022/11/11 00:26:33;;;;;;;20.42;18.92;;;7.20;99.90;;;;;;5055411;28;20537;-78
2022/11/11 00:29:24;;;;;;;21.42;19.90;;;7.10;99.90;;;;;;5059153;28;20131;-78
2022/11/11 00:32:30;;;;;;;21.52;19.98;;;7.10;99.90;;;;;;5042145;28;20077;-78
2022/11/11 00:41:26;;;;;;;22.52;20.75;;;7.20;99.90;;;;;;5061241;28;20047;-78
2022/11/11 00:44:11;;;;;;;21.48;20.00;;;7.10;99.90;;;;;;5047124;28;20049;-78
2022/11/11 00:53:15;;;;;;;21.60;20.30;;;7.20;99.90;;;;;;5065313;28;20406;-78
2022/11/11 00:56:06;;;;;;;23.98;22.02;;;7.30;99.90;;;;;;5049189;28;20091;-78
2022/11/11 00:58:51;;;;;;;22.05;20.65;;;7.30;99.90;;;;;;5043363;28;20100;-78
2022/11/11 01:01:36;;;;;;;23.08;21.00;;;7.20;99.90;;;;;;5060403;28;20445;-78
2022/11/11 01:04:22;;;;;;;22.75;20.92;;;7.20;99.90;;;;;;5064985;28;20290;-79
2022/11/11 01:07:08;;;;;;;22.60;20.85;;;7.30;99.90;;;;;;5049273;28;20093;-78
2022/11/11 01:09:53;;;;;;;;;;;7.30;99.90;;;;;;5062608;28;20064;-78
2022/11/11 01:12:38;;;;;;;22.00;20.40;;;7.30;99.90;;;;;;5058483;28;20314;-78
2022/11/11 01:15:24;;;;;;;;;;;7.20;99.90;;;;;;5045854;28;20118;-78
2022/11/11 01:18:11;;;;;;;22.03;20.30;;;7.00;99.90;;;;;;5045172;28;20357;-78
2022/11/11 01:21:10;;;;;;;22.33;20.73;;;6.90;99.90;;;;;;5058704;28;20185;-78
2022/11/11 01:23:56;;;;;;;23.15;21.10;;;6.80;99.90;;;;;;5045462;28;20048;-78
2022/11/11 01:26:41;;;;;;;22.08;20.30;;;6.70;99.90;;;;;;5044772;28;20059;-78
2022/11/11 01:29:26;;;;;;;;;;;6.80;99.90;;;;;;5062863;28;20135;-78
2022/11/11 01:32:12;;;;;;;21.15;19.67;;;6.90;99.90;;;;;;5045116;28;19928;-78
2022/11/11 01:34:57;;;;;;;;;;;6.90;99.90;;;;;;5048373;28;20147;-78
2022/11/11 01:37:42;;;;;;;20.20;18.52;;;7.00;99.90;;;;;;5045830;28;19951;-78
2022/11/11 01:40:28;;;;;;;20.83;18.80;;;7.10;99.90;;;;;;5043887;28;20048;-78
2022/11/11 01:43:32;;;;;;;20.48;19.08;;;7.10;99.90;;;;;;5043341;28;20045;-78
2022/11/11 01:46:38;;;;;;;20.90;19.27;;;7.10;99.90;;;;;;5061316;28;20056;-78
2022/11/11 01:50:01;;;;;;;21.13;19.80;;;7.10;99.90;;;;;;5046538;28;20055;-78
2022/11/11 01:52:47;;;;;;;22.08;20.67;;;7.00;99.90;;;;;;5042635;28;20045;-78
2022/11/11 01:55:32;;;;;;;22.15;20.15;;;7.00;99.90;;;;;;5057733;28;20075;-80
2022/11/11 01:58:19;;;;;;;21.92;19.98;;;7.10;99.90;;;;;;5036540;28;20139;-77
2022/11/11 02:01:05;;;;;;;21.33;19.85;;;7.10;99.90;;;;;;5044456;28;20094;-78
2022/11/11 02:07:01;;;;;;;21.30;19.75;;;7.00;99.90;;;;;;5060742;28;20044;-78
2022/11/11 02:09:47;;;;;;;22.63;20.65;;;7.00;99.90;;;;;;5036905;28;20060;-77
2022/11/11 02:15:37;;;;;;;21.27;19.85;;;7.10;99.90;;;;;;5057779;28;20048;-78
2022/11/11 02:18:23;;;;;;;21.13;19.63;;;7.00;99.90;;;;;;5035488;28;20056;-77
2022/11/11 02:21:18;;;;;;;22.05;20.05;;;7.00;99.90;;;;;;5042193;28;20260;-78
2022/11/11 02:24:11;;;;;;;21.10;19.90;;;6.90;99.90;;;;;;5044345;28;20051;-77
2022/11/11 02:26:57;;;;;;;20.65;19.02;;;6.70;99.90;;;;;;5043685;28;20037;-78
2022/11/11 02:29:47;;;;;;;20.73;19.38;;;6.60;99.90;;;;;;5039887;28;20070;-78
2022/11/11 02:32:33;;;;;;;20.52;18.88;;;6.60;99.90;;;;;;5041792;28;20037;-77
2022/11/11 02:35:33;;;;;;;20.02;18.65;;;6.60;99.90;;;;;;5037854;28;20056;-76
2022/11/11 02:38:18;;;;;;;20.73;19.15;;;6.80;99.90;;;;;;5056972;28;20125;-78
2022/11/11 02:44:08;;;;;;;19.73;18.63;;;7.00;99.90;;;;;;5059409;28;20190;-78
2022/11/11 02:46:53;;;;;;;;;;;7.10;99.90;;;;;;5058806;28;20063;-78
2022/11/11 02:49:38;;;;;;;20.73;19.42;;;7.10;99.90;;;;;;5043489;28;19935;-77
2022/11/11 02:52:24;;;;;;;21.65;20.35;;;7.00;99.90;;;;;;5038394;28;20762;-78
2022/11/11 02:55:10;;;;;;;22.10;20.65;;;6.90;99.90;;;;;;5046293;28;20056;-77
2022/11/11 02:57:55;;;;;;;22.13;20.60;;;7.00;99.90;;;;;;5042774;28;20566;-78
2022/11/11 03:00:44;;;;;;;22.00;20.58;;;6.90;99.90;;;;;;5055761;28;20464;-77
2022/11/11 03:03:29;;;;;;;21.00;19.55;;;6.80;99.90;;;;;;5042745;28;20048;-78
2022/11/11 03:06:15;;;;;;;21.42;20.02;;;6.80;99.90;;;;;;5043653;28;20067;-77
2022/11/11 03:09:01;;;;;;;21.05;19.55;;;6.80;99.90;;;;;;5044092;28;20075;-78
2022/11/11 03:11:46;;;;;;;;;;;6.80;99.90;;;;;;5040602;28;20587;-77
2022/11/11 03:14:31;;;;;;;21.50;19.95;;;6.80;99.90;;;;;;5058725;28;20034;-77
2022/11/11 03:23:25;;;;;;;21.48;19.90;;;6.70;99.90;;;;;;5057464;28;20059;-79
2022/11/11 03:26:11;;;;;;;20.80;19.60;;;6.70;99.90;;;;;;5054324;28;20041;-77
2022/11/11 03:28:56;;;;;;;20.67;19.23;;;6.70;99.90;;;;;;5045599;28;20140;-77
2022/11/11 03:31:41;;;;;;;19.55;18.45;;;6.90;99.90;;;;;;5041766;28;20181;-77
2022/11/11 03:34:27;;;;;;;20.23;18.92;;;7.10;99.90;;;;;;5059906;28;20095;-77
2022/11/11 03:40:16;;;;;;;21.08;19.77;;;7.20;99.90;;;;;;5057913;28;20139;-77
2022/11/11 03:43:02;;;;;;;21.20;19.80;;;7.20;99.90;;;;;;5057654;28;20520;-77
2022/11/11 03:45:50;;;;;;;21.30;19.83;;;7.30;99.90;;;;;;5044716;28;20059;-78
2022/11/11 03:48:36;;;;;;;20.67;19.38;;;7.30;99.90;;;;;;5045941;28;20118;-78
2022/11/11 03:51:21;;;;;;;20.95;19.75;;;7.40;99.90;;;;;;5055324;28;20055;-77
2022/11/11 03:54:07;;;;;;;;;;;7.40;99.90;;;;;;5046594;28;20052;-77
2022/11/11 03:57:29;;;;;;;21.13;19.70;;;7.50;99.90;;;;;;5055862;28;19990;-78
2022/11/11 03:59:58;;;;;;;21.85;20.33;;;7.40;99.90;;;;;;5052034;28;20048;-78
2022/11/11 04:11:55;;;;;;;22.75;21.15;;;7.30;99.90;;;;;;5060477;28;20074;-78
2022/11/11 04:17:45;;;;;;;22.83;21.30;;;7.20;99.90;;;;;;5062628;28;20122;-78
2022/11/11 04:23:34;;;;;;;23.52;21.80;;;7.10;99.90;;;;;;5052433;28;20056;-78
2022/11/11 04:26:20;;;;;;;23.33;21.40;;;7.10;99.90;;;;;;5058384;28;20653;-77
2022/11/11 04:35:15;;;;;;;;;;;6.90;99.90;;;;;;5062954;28;20089;-78
2022/11/11 04:41:05;;;;;;;23.52;22.02;;;6.80;99.90;;;;;;5061799;28;20044;-77
2022/11/11 04:46:54;;;;;;;23.75;21.73;;;6.60;99.90;;;;;;5054814;28;20048;-77
2022/11/11 04:49:40;;;;;;;22.45;20.80;;;6.50;99.90;;;;;;5043703;28;20634;-78
2022/11/11 04:52:26;;;;;;;22.27;20.60;;;6.50;99.90;;;;;;5041380;28;20037;-77
2022/11/11 04:58:20;;;;;;;21.15;19.38;;;6.50;99.90;;;;;;5060501;28;20186;-77
2022/11/11 05:01:05;;;;;;;20.98;19.35;;;6.50;99.90;;;;;;5052532;28;20037;-77
2022/11/11 05:03:50;;;;;;;22.08;20.48;;;6.50;99.90;;;;;;5056044;28;20068;-77
2022/11/11 05:09:44;;;;;;;20.42;19.15;;;6.40;99.90;;;;;;5063477;28;20059;-77
2022/11/11 05:12:29;;;;;;;;;;;6.40;99.90;;;;;;5059096;28;20726;-77
2022/11/11 05:21:27;;;;;;;20.42;19.10;;;6.50;99.90;;;;;;5053979;28;20052;-77
2022/11/11 05:27:16;;;;;;;19.20;18.08;;;6.50;99.90;;;;;;5060227;28;20047;-77
2022/11/11 05:30:02;;;;;;;;;;;6.50;99.90;;;;;;5042080;28;20172;-77
2022/11/11 05:32:48;;;;;;;20.23;19.02;;;6.50;99.90;;;;;;5053229;28;19927;-77
2022/11/11 05:35:35;;;;;;;19.83;18.50;;;6.50;99.90;;;;;;5042773;28;20505;-77
2022/11/11 05:38:20;;;;;;;20.33;18.90;;;6.50;99.90;;;;;;5058147;28;20137;-80
2022/11/11 05:41:07;;;;;;;20.20;18.75;;;6.60;99.90;;;;;;5044333;28;20113;-77
2022/11/11 05:43:52;;;;;;;20.40;18.88;;;6.70;99.90;;;;;;5059139;28;21490;-77
2022/11/11 05:46:37;;;;;;;22.08;20.15;;;6.70;99.90;;;;;;5042803;28;20047;-77
2022/11/11 05:49:23;;;;;;;;;;;6.70;99.90;;;;;;5046121;28;20130;-77
2022/11/11 05:52:11;;;;;;;20.15;18.70;;;6.80;99.90;;;;;;5059982;28;19931;-77
2022/11/11 05:54:56;;;;;;;19.95;18.48;;;6.80;99.90;;;;;;5043653;28;20442;-77
2022/11/11 05:57:42;;;;;;;21.10;19.23;;;6.90;99.90;;;;;;5040716;28;20724;-77
2022/11/11 06:00:27;;;;;;;21.10;19.52;;;6.90;99.90;;;;;;5058160;28;20052;-78
2022/11/11 06:03:13;;;;;;;21.02;19.70;;;7.00;99.90;;;;;;5042773;28;20755;-78
2022/11/11 06:05:59;;;;;;;23.70;21.85;;;7.00;99.90;;;;;;5060679;28;20076;-78
2022/11/11 06:08:45;;;;;;;20.40;19.20;;;7.00;99.90;;;;;;5038591;28;20055;-78
2022/11/11 06:11:30;;;;;;;21.95;20.30;;;7.10;99.90;;;;;;5044702;28;20110;-77
2022/11/11 06:14:17;;;;;;;22.08;20.30;;;7.10;99.90;;;;;;5043578;28;20056;-77
2022/11/11 06:17:03;;;;;;;22.20;20.70;;;7.10;99.90;;;;;;5060052;28;20041;-77
2022/11/11 06:19:48;;;;;;;;;;;7.00;99.90;;;;;;5041670;28;20526;-77
2022/11/11 06:22:55;;;;;;;22.42;20.73;;;7.00;99.90;;;;;;5041364;28;20647;-77
2022/11/11 06:28:55;;;;;;;23.52;21.80;;;6.80;99.90;;;;;;5058596;28;20056;-77
2022/11/11 06:31:40;;;;;;;23.73;21.73;;;6.70;99.90;;;;;;5059052;28;20051;-77
2022/11/11 06:34:25;;;;;;;;;;;6.70;99.90;;;;;;5060055;28;20154;-78
2022/11/11 06:37:10;;;;;;;22.33;20.90;;;6.80;99.90;;;;;;5044048;28;19931;-77
2022/11/11 06:39:56;;;;;;;22.08;20.65;;;6.90;99.90;;;;;;5057842;28;20437;-77
2022/11/11 06:42:41;;;;;;;21.10;19.70;;;6.80;99.90;;;;;;5043042;28;20567;-77
2022/11/11 06:45:28;;;;;;;;;;;6.80;99.90;;;;;;5045391;28;20044;-77
2022/11/11 06:48:14;;;;;;;20.33;18.90;;;6.80;99.90;;;;;;5040197;28;20472;-77
2022/11/11 06:51:05;;;;;;;21.35;19.75;;;6.70;99.90;;;;;;5050953;28;20045;-76
2022/11/11 06:53:51;;;;;;;21.77;20.02;;;6.50;99.90;;;;;;5038611;28;20060;-77
2022/11/11 06:56:36;;;;;;;21.33;19.75;;;6.40;99.90;;;;;;5036718;28;20108;-75
2022/11/11 06:59:21;;;;;;;;;;;6.30;99.90;;;;;;5045939;28;20094;-77
2022/11/11 07:02:17;;;;;;;23.38;21.50;;;6.30;99.90;;;;;;5049340;28;20402;-76
2022/11/11 07:05:02;;;;;;;23.80;22.17;;;6.30;99.90;;;;;;5049695;28;20052;-78
2022/11/11 07:07:47;;;;;;;24.42;22.73;;;6.30;99.90;;;;;;5043172;28;20053;-78
2022/11/11 07:10:34;;;;;;;;;;;6.20;99.90;;;;;;5043695;28;20110;-75
2022/11/11 07:13:20;;;;;;;24.20;22.50;;;6.20;99.90;;;;;;5041174;28;19921;-76
2022/11/11 07:16:05;;;;;;;;;;;6.00;99.90;;;;;;5055279;28;20040;-78
2022/11/11 07:18:50;;;;;;;23.13;21.35;;;6.00;99.90;;;;;;5047256;28;20556;-78
2022/11/11 07:21:36;;;;;;;22.35;20.90;;;5.90;99.90;;;;;;5040636;28;20531;-78
2022/11/11 07:24:21;;;;;;;;;;;5.90;99.90;;;;;;5044295;28;20056;-77
2022/11/11 07:27:07;;;;;;;22.35;20.67;;;5.90;99.90;;;;;;5047927;28;19927;-77
2022/11/11 07:29:52;;;;;;;;;;;5.90;99.90;;;;;;5053561;28;20727;-77
2022/11/11 07:32:45;;;;;;;24.80;22.85;;;6.00;99.90;;;;;;5054166;28;19966;-77
2022/11/11 07:35:31;;;;;;;23.13;21.52;;;5.90;99.90;;;;;;5037387;28;20041;-78
2022/11/11 07:38:16;;;;;;;23.30;21.55;;;6.00;99.90;;;;;;5058616;28;20063;-78
2022/11/11 07:41:01;;;;;;;23.50;21.80;;;6.20;99.90;;;;;;5062286;28;20041;-79
2022/11/11 07:43:46;;;;;;;26.10;24.20;;;6.30;99.90;;;;;;5040279;28;20047;-75
2022/11/11 07:46:32;;;;;;;21.42;19.30;;;6.40;99.90;;;;;;5044832;28;20055;-77
2022/11/11 07:49:17;;;;;;;20.90;19.50;;;6.70;99.90;;;;;;5043567;28;20056;-78
2022/11/11 07:52:03;;;;;;;24.05;22.15;;;6.80;99.90;;;;;;5055254;28;20064;-77
2022/11/11 07:54:49;;;;;;;22.45;20.55;;;6.80;99.90;;;;;;5042182;28;20059;-78
2022/11/11 07:57:35;;;;;;;21.00;19.50;;;6.80;99.90;;;;;;5044630;28;20131;-76
2022/11/11 08:00:21;;;;;;;21.42;20.20;;;7.00;99.90;;;;;;5061275;28;20052;-77
2022/11/11 08:03:07;;;;;;;22.40;21.00;;;7.10;99.90;;;;;;5061372;28;20106;-77
2022/11/11 08:05:54;;;;;;;25.42;23.73;;;7.20;99.90;;;;;;5044060;28;20118;-77
2022/11/11 08:08:40;;;;;;;23.40;21.88;;;7.30;99.90;;;;;;5043391;28;20052;-76
2022/11/11 08:14:29;;;;;;;25.35;23.88;;;7.60;99.90;;;;;;5062915;28;20058;-77
2022/11/11 08:17:14;;;;;;;25.92;24.52;;;7.80;99.90;;;;;;5046733;28;20402;-77
2022/11/11 08:20:00;;;;;;;;;;;7.80;99.90;;;;;;5049298;28;20537;-77
2022/11/11 08:22:45;;;;;;;29.10;26.88;;;7.90;99.90;;;;;;5042040;28;19920;-76
2022/11/11 08:25:50;;;;;;;29.40;26.75;;;8.10;99.90;;;;;;5056810;28;20167;-77
2022/11/11 08:28:36;;;;;;;28.58;26.88;;;8.30;99.90;;;;;;5037930;28;20052;-77
2022/11/11 08:31:21;;;;;;;;;;;8.40;99.90;;;;;;5035630;28;20051;-78
2022/11/11 08:34:07;;;;;;;27.23;25.83;;;8.60;99.90;;;;;;5047622;28;20385;-77
2022/11/11 08:36:52;;;;;;;28.02;26.23;;;8.70;99.90;;;;;;5045323;28;20036;-77
2022/11/11 08:39:37;;;;;;;27.08;25.60;;;8.80;99.90;;;;;;5044149;28;20129;-76
2022/11/11 08:42:23;;;;;;;27.38;25.88;;;9.00;99.90;;;;;;5045237;28;20059;-77
2022/11/11 08:45:11;;;;;;;26.75;25.15;;;9.10;99.90;;;;;;5043230;28;20101;-77
2022/11/11 08:47:56;;;;;;;26.70;25.10;;;9.30;99.90;;;;;;5043232;28;20093;-78
2022/11/11 08:50:41;;;;;;;;;;;9.50;99.90;;;;;;5045079;28;20055;-77
2022/11/11 08:53:27;;;;;;;25.20;23.50;;;9.70;99.90;;;;;;5062646;28;19920;-77
2022/11/11 08:56:13;;;;;;;25.80;24.02;;;9.80;99.90;;;;;;5048398;28;20508;-75
2022/11/11 08:58:58;;;;;;;25.77;24.10;;;9.90;99.90;;;;;;5045530;28;20059;-77
2022/11/11 09:01:43;;;;;;;;;;;10.00;99.90;;;;;;5040777;28;20079;-77
2022/11/11 09:04:29;;;;;;;25.05;23.55;;;10.20;99.90;;;;;;5049547;28;20293;-77
2022/11/11 09:07:33;;;;;;;24.42;22.73;;;10.40;99.90;;;;;;5045421;28;21367;-75
2022/11/11 09:10:18;;;;;;;;;;;10.60;99.90;;;;;;5040378;28;20048;-77
2022/11/11 09:13:04;;;;;;;24.57;22.87;;;10.50;99.90;;;;;;5044895;28;19920;-76
2022/11/11 09:15:53;;;;;;;23.42;21.92;;;10.50;99.90;;;;;;5058610;28;20052;-76
2022/11/11 09:18:38;;;;;;;23.08;21.58;;;10.50;99.90;;;;;;5042363;28;20036;-77
2022/11/11 09:21:24;;;;;;;22.77;21.45;;;10.60;99.90;;;;;;5058926;28;20052;-76
2022/11/11 09:24:09;;;;;;;;;;;10.60;99.90;;;;;;5047827;28;20573;-78
2022/11/11 09:26:55;;;;;;;23.05;21.40;;;10.90;99.90;;;;;;5042988;28;19928;-78
2022/11/11 09:29:40;;;;;;;23.38;21.98;;;11.10;99.90;;;;;;5039605;28;20040;-77
2022/11/11 09:32:25;;;;;;;23.15;21.85;;;11.20;99.90;;;;;;5062983;28;20564;-76
2022/11/11 09:35:11;;;;;;;22.10;20.77;;;11.30;99.90;;;;;;5061826;28;20049;-76
2022/11/11 09:37:59;;;;;;;;;;;11.30;99.90;;;;;;5061135;28;20052;-77
2022/11/11 09:41:07;;;;;;;22.35;21.02;;;11.50;99.90;;;;;;5043788;28;19927;-77
2022/11/11 09:44:02;;;;;;;23.08;21.73;;;11.60;99.90;;;;;;5046884;28;20079;-77
2022/11/11 09:47:04;;;;;;;22.75;21.45;;;11.60;99.90;;;;;;5044472;28;20082;-77
2022/11/11 09:50:04;;;;;;;23.15;21.60;;;11.70;99.90;;;;;;5043760;28;20056;-77
2022/11/11 09:53:03;;;;;;;22.15;20.90;;;11.80;99.90;;;;;;5046475;28;20045;-76
2022/11/11 09:55:54;;;;;;;22.38;20.98;;;11.90;99.90;;;;;;5051894;28;20139;-77
2022/11/11 09:58:45;;;;;;;22.02;20.42;;;12.10;99.90;;;;;;5059486;28;20071;-76
2022/11/11 10:01:41;;;;;;;21.50;20.20;;;12.30;99.90;;;;;;5059453;28;20052;-77
2022/11/11 10:04:37;;;;;;;21.45;20.02;;;12.60;99.90;;;;;;5046949;28;20125;-77
2022/11/11 10:07:51;;;;;;;21.83;20.63;;;13.10;99.90;;;;;;5064395;28;20055;-77
2022/11/11 10:10:48;;;;;;;21.05;19.83;;;13.30;99.90;;;;;;5050855;28;20535;-78
2022/11/11 10:13:36;;;;;;;21.83;20.52;;;13.50;99.90;;;;;;5038343;28;20606;-77
2022/11/11 10:16:43;;;;;;;22.40;20.90;;;13.70;99.90;;;;;;5056057;28;20098;-77
2022/11/11 10:19:38;;;;;;;22.20;20.75;;;13.90;99.90;;;;;;5057051;28;20117;-78
2022/11/11 10:22:34;;;;;;;23.15;21.52;;;14.20;99.90;;;;;;5058132;28;20041;-77
2022/11/11 10:25:23;;;;;;;21.40;20.10;;;14.50;99.90;;;;;;5057157;28;20044;-77
2022/11/11 10:28:16;;;;;;;21.15;19.92;;;14.60;99.90;;;;;;5041601;28;20051;-77
2022/11/11 10:31:03;;;;;;;21.73;20.50;;;14.70;99.90;;;;;;5053505;28;20036;-77
2022/11/11 10:33:54;;;;;;;21.67;20.52;;;14.70;99.90;;;;;;5044240;28;20574;-76
2022/11/11 10:36:50;;;;;;;21.83;20.58;;;14.70;99.90;;;;;;5043086;28;20101;-77
2022/11/11 10:40:03;;;;;;;21.60;20.50;;;14.80;99.90;;;;;;5041840;28;20048;-77
2022/11/11 10:42:49;;;;;;;22.00;20.80;;;14.80;99.90;;;;;;5054318;28;20706;-77
2022/11/11 10:45:48;;;;;;;22.10;20.80;;;14.80;99.90;;;;;;5038965;28;20739;-77
2022/11/11 10:50:12;;;;;;;22.60;21.17;;;14.70;99.90;;;;;;5052982;28;20044;-74
2022/11/11 10:52:43;;;;;;;22.85;21.50;;;14.60;99.90;;;;;;5045325;28;20074;-78
2022/11/11 10:55:49;;;;;;;22.27;20.98;;;14.60;99.90;;;;;;5074481;28;20049;-78
2022/11/11 10:58:55;;;;;;;23.73;22.13;;;14.50;99.90;;;;;;5053874;28;20060;-76
2022/11/11 11:02:07;;;;;;;22.15;20.67;;;14.40;99.90;;;;;;5057378;28;20052;-77
2022/11/11 11:05:05;;;;;;;21.98;20.42;;;14.20;99.90;;;;;;5040185;28;20086;-77
2022/11/11 11:07:55;;;;;;;22.40;20.73;;;14.30;99.90;;;;;;5056273;28;20051;-78
2022/11/11 11:10:55;;;;;;;22.45;20.92;;;14.30;99.90;;;;;;5053511;28;20044;-78
2022/11/11 11:13:48;;;;;;;21.55;20.17;;;14.30;99.90;;;;;;5040091;28;21620;-77
2022/11/11 11:16:43;;;;;;;22.02;20.63;;;14.40;99.90;;;;;;5058859;28;20413;-77
2022/11/11 11:19:29;;;;;;;21.75;20.20;;;14.50;99.90;;;;;;5059038;28;20064;-79
2022/11/11 11:22:16;;;;;;;22.27;20.77;;;14.60;99.90;;;;;;5041652;28;20040;-77
2022/11/11 11:25:10;;;;;;;21.83;20.38;;;14.80;99.90;;;;;;5053826;28;20048;-79
2022/11/11 11:28:12;;;;;;;22.00;20.60;;;14.90;99.90;;;;;;5041487;28;20416;-77
2022/11/11 11:31:03;;;;;;;22.02;20.45;;;14.90;99.90;;;;;;5059211;28;20138;-76
2022/11/11 11:33:51;;;;;;;21.30;19.80;;;14.90;99.90;;;;;;5049368;28;20103;-77
2022/11/11 11:36:37;;;;;;;21.80;20.40;;;15.00;99.90;;;;;;5043427;28;20172;-76
2022/11/11 11:39:35;;;;;;;;;;;15.20;99.90;;;;;;5047922;28;20187;-76
2022/11/11 11:42:29;;;;;;;21.33;19.88;;;15.20;99.90;;;;;;5042511;28;19931;-77
2022/11/11 11:45:28;;;;;;;21.90;20.48;;;15.30;99.90;;;;;;5054165;28;20040;-78
2022/11/11 11:48:41;;;;;;;21.67;20.38;;;15.40;99.90;;;;;;5052674;28;20140;-76
2022/11/11 11:52:04;;;;;;;21.08;19.77;;;15.40;99.90;;;;;;5055778;28;20041;-77
2022/11/11 11:55:21;;;;;;;21.92;20.63;;;15.50;99.90;;;;;;5064017;28;20112;-79
2022/11/11 11:58:25;;;;;;;22.50;20.75;;;15.60;99.90;;;;;;5058467;28;20394;-80
2022/11/11 12:01:20;;;;;;;21.60;20.40;;;15.60;99.90;;;;;;5055335;28;20181;-78
2022/11/11 12:04:30;;;;;;;21.70;20.17;;;15.70;99.90;;;;;;5052983;28;20117;-78
2022/11/11 12:07:50;;;;;;;21.90;20.50;;;15.60;99.90;;;;;;5061637;28;20051;-77
2022/11/11 12:10:40;;;;;;;22.02;20.77;;;15.50;99.90;;;;;;5055920;28;20086;-77
2022/11/11 12:14:07;;;;;;;21.65;20.45;;;15.20;99.90;;;;;;5050124;28;20132;-77
2022/11/11 12:17:08;;;;;;;22.08;20.77;;;15.10;99.90;;;;;;5062892;28;20072;-78
2022/11/11 12:20:04;;;;;;;22.52;21.13;;;15.00;99.90;;;;;;5068604;28;20062;-78
2022/11/11 12:23:15;;;;;;;22.40;20.88;;;14.80;99.90;;;;;;5054337;28;20036;-78
2022/11/11 12:26:18;;;;;;;23.27;21.52;;;14.70;99.90;;;;;;5062596;28;20066;-78
2022/11/11 12:29:24;;;;;;;22.58;21.17;;;14.70;99.90;;;;;;5058531;28;20044;-78
2022/11/11 12:32:31;;;;;;;22.70;21.30;;;14.70;99.90;;;;;;5053843;28;20083;-78
2022/11/11 12:35:50;;;;;;;22.90;21.50;;;14.70;99.90;;;;;;5059068;28;20063;-77
2022/11/11 12:38:54;;;;;;;22.70;21.10;;;14.70;99.90;;;;;;5059383;28;20559;-78
2022/11/11 12:42:00;;;;;;;22.10;20.70;;;14.70;99.90;;;;;;5060851;28;20552;-77
2022/11/11 12:45:07;;;;;;;22.35;20.92;;;14.80;99.90;;;;;;5057000;28;20128;-78
2022/11/11 12:48:11;;;;;;;22.63;21.13;;;15.00;99.90;;;;;;5060753;28;20402;-79
2022/11/11 12:51:26;;;;;;;21.45;20.30;;;15.10;99.90;;;;;;5063712;28;20043;-78
2022/11/11 12:54:30;;;;;;;21.85;20.38;;;15.20;99.90;;;;;;5060270;28;20041;-78
2022/11/11 12:57:30;;;;;;;22.70;21.30;;;15.50;99.90;;;;;;5057178;28;20051;-77
2022/11/11 13:00:19;;;;;;;23.23;21.80;;;15.60;99.90;;;;;;5072191;28;20052;-78
2022/11/11 13:03:30;;;;;;;22.17;20.83;;;15.70;99.90;;;;;;5065315;28;20063;-78
2022/11/11 13:06:15;;;;;;;23.00;21.73;;;15.90;99.90;;;;;;5057399;28;20059;-76
2022/11/11 13:09:04;;;;;;;22.23;21.00;;;16.00;99.90;;;;;;5061692;28;20051;-77
2022/11/11 13:12:12;;;;;;;22.13;20.92;;;16.10;99.90;;;;;;5053630;28;20048;-76
2022/11/11 13:15:16;;;;;;;23.13;21.83;;;16.30;99.90;;;;;;5053026;28;20040;-77
2022/11/11 13:18:09;;;;;;;22.63;21.42;;;16.40;99.90;;;;;;5055660;28;20129;-77
2022/11/11 13:21:00;;;;;;;22.73;21.38;;;16.40;99.90;;;;;;5057558;28;20555;-77
2022/11/11 13:23:45;;;;;;;21.63;20.45;;;16.40;99.90;;;;;;5050460;28;20442;-77
2022/11/11 13:26:48;;;;;;;22.40;21.02;;;16.40;99.90;;;;;;5053941;28;20048;-77
2022/11/11 13:29:57;;;;;;;23.85;22.25;;;16.40;99.90;;;;;;5057094;28;20772;-77
2022/11/11 13:33:05;;;;;;;25.80;23.90;;;16.40;99.90;;;;;;5071629;28;20067;-77
2022/11/11 13:36:00;;;;;;;23.05;21.75;;;16.40;99.90;;;;;;5056656;28;20151;-77
2022/11/11 13:38:55;;;;;;;23.47;21.97;;;16.20;99.90;;;;;;5061697;28;20555;-77
2022/11/11 13:41:47;;;;;;;22.92;21.65;;;16.10;99.90;;;;;;5052249;28;21118;-78
2022/11/11 13:44:41;;;;;;;23.63;22.08;;;16.10;99.90;;;;;;5056515;28;20535;-78
2022/11/11 13:47:36;;;;;;;22.88;21.67;;;16.00;99.90;;;;;;5057123;28;20037;-78
2022/11/11 13:50:30;;;;;;;23.30;21.73;;;15.90;99.90;;;;;;5054993;28;20071;-78
2022/11/11 13:53:32;;;;;;;24.13;22.73;;;15.80;99.90;;;;;;5052737;28;20694;-77
2022/11/11 13:56:38;;;;;;;26.63;24.73;;;15.60;99.90;;;;;;5055485;28;20098;-77
2022/11/11 13:59:30;;;;;;;24.27;22.85;;;15.60;99.90;;;;;;5057122;28;20106;-77
2022/11/11 14:02:19;;;;;;;23.42;22.13;;;15.50;99.90;;;;;;5058986;28;20101;-77
2022/11/11 14:05:05;;;;;;;23.42;22.13;;;15.50;99.90;;;;;;5061938;28;20111;-76
2022/11/11 14:07:53;;;;;;;;;;;15.40;99.90;;;;;;5060111;28;21055;-77
2022/11/11 14:10:38;;;;;;;22.75;21.40;;;15.30;99.90;;;;;;5051900;28;20270;-78
2022/11/11 14:13:31;;;;;;;24.20;22.70;;;15.20;99.90;;;;;;5057696;28;20060;-78
2022/11/11 14:16:35;;;;;;;23.27;21.98;;;15.10;99.90;;;;;;5056352;28;20047;-78
2022/11/11 14:19:20;;;;;;;24.65;23.15;;;15.00;99.90;;;;;;5052541;28;20426;-79
2022/11/11 14:22:27;;;;;;;25.40;23.80;;;14.90;99.90;;;;;;5057766;28;20047;-76
2022/11/11 14:25:25;;;;;;;24.45;22.80;;;14.90;99.90;;;;;;5056166;28;20077;-76
2022/11/11 14:28:21;;;;;;;23.42;22.13;;;14.90;99.90;;;;;;5059675;28;20055;-77
2022/11/11 14:31:12;;;;;;;24.42;22.92;;;14.80;99.90;;;;;;5060768;28;20445;-78
2022/11/11 14:34:21;;;;;;;22.35;21.05;;;14.80;99.90;;;;;;5060402;28;20539;-77
2022/11/11 14:37:40;;;;;;;22.17;20.98;;;14.80;99.90;;;;;;5061190;28;20045;-77
2022/11/11 14:40:29;;;;;;;22.02;20.83;;;14.90;99.90;;;;;;5048839;28;20059;-77
2022/11/11 14:43:39;;;;;;;23.17;21.88;;;14.90;99.90;;;;;;5055325;28;20063;-76
2022/11/11 14:47:01;;;;;;;21.45;20.35;;;14.90;99.90;;;;;;5055240;28;20130;-78
2022/11/11 14:49:52;;;;;;;22.17;20.83;;;14.90;99.90;;;;;;5058418;28;20049;-77
2022/11/11 14:52:41;;;;;;;22.20;20.80;;;14.90;99.90;;;;;;5061719;22;20301;-74
2022/11/11 14:55:34;;;;;;;24.15;22.75;;;14.80;99.90;;;;;;5027330;28;20049;-76
2022/11/11 14:58:23;;;;;;;24.02;22.73;;;14.80;99.90;;;;;;5033291;28;20056;-77
2022/11/11 15:01:17;;;;;;;24.77;23.13;;;14.70;99.90;;;;;;5021635;28;20052;-76
2022/11/11 15:04:06;;;;;;;24.73;23.30;;;14.70;99.90;;;;;;5052314;28;20052;-77
2022/11/11 15:06:59;;;;;;;24.52;23.13;;;14.60;99.90;;;;;;5035807;28;20038;-77
2022/11/11 15:10:04;;;;;;;24.33;23.05;;;14.40;99.90;;;;;;5034899;28;20423;-76
2022/11/11 15:13:15;;;;;;;25.48;23.98;;;14.20;99.90;;;;;;5042904;28;20362;-76
2022/11/11 15:16:27;;;;;;;23.70;22.27;;;14.10;99.90;;;;;;5036072;28;20049;-76
2022/11/11 15:19:40;;;;;;;25.27;23.55;;;14.00;99.90;;;;;;5021923;28;20049;-77
2022/11/11 15:22:25;;;;;;;33.75;30.92;;;13.90;99.90;;;;;;5037708;28;20068;-76
2022/11/11 15:25:29;;;;;;;;;;;13.80;99.90;;;;;;5032327;28;20118;-76
2022/11/11 15:28:39;;;;;;;;;;;13.60;99.90;;;;;;5036218;28;20009;-76
2022/11/11 15:31:31;;;;;;;;;;;13.40;99.90;;;;;;5039913;28;20472;-77
2022/11/11 15:34:35;;;;;;;;;;;13.40;99.90;;;;;;5041488;28;19931;-78
2022/11/11 15:37:21;;;;;;;;;;;13.30;99.90;;;;;;5031101;28;19970;-79
2022/11/11 15:40:07;;;;;;;;;;;13.20;99.90;;;;;;5031864;28;20058;-79
2022/11/11 15:42:52;;;;;;;;;;;13.00;99.90;;;;;;5037505;28;19921;-79
2022/11/11 15:45:38;;;;;;;;;;;12.80;99.90;;;;;;5031420;28;19925;-79
2022/11/11 15:48:26;;;;;;;;;;;12.60;99.90;;;;;;5032417;28;19924;-79
2022/11/11 15:51:13;;;;;;;;;;;12.50;99.90;;;;;;5039423;28;20056;-79
2022/11/11 15:54:10;;;;;;;;;;;12.30;99.90;;;;;;5040794;28;19982;-79
2022/11/11 15:56:55;;;;;;;;;;;12.10;99.90;;;;;;5038573;28;19925;-80
2022/11/11 15:59:40;;;;;;;;;;;11.90;99.90;;;;;;5040860;28;19942;-80
2022/11/11 16:02:27;;;;;;;;;;;11.80;99.90;;;;;;5041963;28;19921;-80
2022/11/11 16:05:22;;;;;;;;;;;11.60;99.90;;;;;;5041746;28;20409;-80
2022/11/11 16:08:10;;;;;;;;;;;11.40;99.90;;;;;;5042924;28;19931;-79
2022/11/11 16:10:57;;;;;;;;;;;11.30;99.90;;;;;;5046841;28;19967;-80
2022/11/11 16:13:51;;;;;;;;;;;11.00;99.90;;;;;;5044921;28;20013;-78
2022/11/11 16:16:43;;;;;;;;;;;10.70;99.90;;;;;;5041057;28;19953;-78
2022/11/11 16:19:33;;;;;;;;;;;10.40;99.90;;;;;;5060148;28;19936;-77
2022/11/11 16:22:27;;;;;;;;;;;10.20;99.90;;;;;;5048497;28;19925;-79
2022/11/11 16:25:16;;;;;;;;;;;10.10;99.90;;;;;;5049177;28;19948;-79